Warner, New Hampshire
Current Conditions -  °F | °C
As of 3:51 AM on Thursday 27 Nov 2014 (Local Time) from KCON Reporting Station
Light Snow Light Snow  
Wind Chill: 23°   Ceiling: NA
Heat Index: 31°   Visibility: 4mi
Dew Point: 30°   Wind: 9mph
Humidity: 96%   Direction: 320°NW
Pressure: 29.78"   Gusts: NA
Location:  43.28°N, 71.82°W
Report Text: KCON 270851Z AUTO 32008KT 4SM -SN BR M01/M01 A2978 RMK AO2 SLP088 P0000 6//// T10061011 $
Loading
Personal Weather Stations






























Interactive Weather Map New forecast layout! Learn more

10-Day Weather Forecast

Advertisements
Track Severe Weather on mobile